createdAt,value
2019-02-27T00:00:09.100Z,0
2019-02-27T00:00:47.283Z,0
2019-02-27T00:01:27.690Z,0
2019-02-27T00:02:08.098Z,0
2019-02-27T00:02:48.514Z,0
2019-02-27T00:03:29.630Z,0
2019-02-27T00:04:09.293Z,0
2019-02-27T00:04:49.680Z,0
2019-02-27T00:05:30.092Z,0
2019-02-27T00:06:12.877Z,0
2019-02-27T00:06:50.867Z,0
2019-02-27T00:07:31.260Z,0
2019-02-27T00:08:11.692Z,0
2019-02-27T00:08:52.105Z,0
2019-02-27T00:09:32.847Z,0
2019-02-27T00:10:12.872Z,0
2019-02-27T00:10:53.258Z,0
2019-02-27T00:11:33.651Z,0
2019-02-27T00:12:14.025Z,0
2019-02-27T00:12:55.072Z,0
2019-02-27T00:13:35.464Z,0
2019-02-27T00:14:15.895Z,0
2019-02-27T00:14:56.304Z,0
2019-02-27T00:15:37.931Z,0
2019-02-27T00:16:17.076Z,0
2019-02-27T00:16:57.531Z,0
2019-02-27T00:17:37.869Z,0
2019-02-27T00:18:18.277Z,0
2019-02-27T00:18:59.337Z,0
2019-02-27T00:19:39.086Z,0
2019-02-27T00:20:19.498Z,0
2019-02-27T00:20:59.892Z,0
2019-02-27T00:21:40.841Z,0
2019-02-27T00:22:20.721Z,0
2019-02-27T00:23:01.084Z,0
2019-02-27T00:23:41.469Z,0
2019-02-27T00:24:22.362Z,0
2019-02-27T00:25:03.302Z,0
2019-02-27T00:25:43.135Z,0
2019-02-27T00:26:23.603Z,0
2019-02-27T00:27:03.975Z,0
2019-02-27T00:27:48.668Z,0
2019-02-27T00:28:24.796Z,0
2019-02-27T00:29:05.222Z,0
2019-02-27T00:29:45.614Z,0
2019-02-27T00:30:26.037Z,0
2019-02-27T00:31:06.454Z,0
2019-02-27T00:31:46.852Z,0
2019-02-27T00:32:27.286Z,0
2019-02-27T00:33:07.697Z,0
2019-02-27T00:33:48.127Z,0
2019-02-27T00:34:32.771Z,0
2019-02-27T00:35:08.911Z,0
2019-02-27T00:35:49.295Z,0
2019-02-27T00:36:29.686Z,0
2019-02-27T00:37:10.093Z,0
2019-02-27T00:37:52.030Z,0
2019-02-27T00:38:30.879Z,0
2019-02-27T00:39:11.283Z,0
2019-02-27T00:39:51.665Z,0
2019-02-27T00:40:32.111Z,0
2019-02-27T00:41:13.041Z,0
2019-02-27T00:41:52.878Z,0
2019-02-27T00:42:33.930Z,0
2019-02-27T00:43:13.652Z,0
2019-02-27T00:43:55.052Z,0
2019-02-27T00:44:35.442Z,0
2019-02-27T00:45:15.855Z,0
2019-02-27T00:45:56.256Z,0
2019-02-27T00:46:36.660Z,0
2019-02-27T00:47:20.014Z,0
2019-02-27T00:47:57.535Z,0
2019-02-27T00:48:37.917Z,0
2019-02-27T00:49:18.341Z,0
2019-02-27T00:49:58.747Z,0
2019-02-27T00:50:39.689Z,0
2019-02-27T00:51:19.643Z,0
2019-02-27T00:52:00.019Z,0
2019-02-27T00:52:40.391Z,0
2019-02-27T00:53:21.911Z,0
2019-02-27T00:54:01.127Z,0
2019-02-27T00:54:41.545Z,0
2019-02-27T00:55:21.944Z,0
2019-02-27T00:56:02.406Z,0
2019-02-27T00:56:44.923Z,0
2019-02-27T00:57:23.128Z,0
2019-02-27T00:58:03.551Z,0
2019-02-27T00:58:43.905Z,0
2019-02-27T00:59:24.286Z,0
2019-02-27T01:00:06.475Z,0
2019-02-27T01:00:45.068Z,0
2019-02-27T01:01:25.459Z,0
2019-02-27T01:02:05.840Z,0
2019-02-27T01:02:46.288Z,0
2019-02-27T01:03:26.808Z,0
2019-02-27T01:04:07.057Z,0
2019-02-27T01:04:47.451Z,0
2019-02-27T01:05:27.879Z,0
2019-02-27T01:06:08.309Z,0
2019-02-27T01:06:48.689Z,0
2019-02-27T01:07:29.074Z,0
2019-02-27T01:08:09.444Z,0
2019-02-27T01:08:49.874Z,0
2019-02-27T01:09:30.286Z,0
2019-02-27T01:10:12.232Z,0
2019-02-27T01:10:51.098Z,0
2019-02-27T01:11:31.520Z,0
2019-02-27T01:12:11.903Z,0
2019-02-27T01:12:52.309Z,0
2019-02-27T01:13:32.709Z,0
2019-02-27T01:14:13.107Z,0
2019-02-27T01:14:53.514Z,0
2019-02-27T01:15:33.906Z,0
2019-02-27T01:16:16.927Z,0
2019-02-27T01:16:54.740Z,0
2019-02-27T01:17:35.138Z,0
2019-02-27T01:18:15.541Z,0
2019-02-27T01:18:55.935Z,0
2019-02-27T01:19:39.123Z,0
2019-02-27T01:20:16.764Z,0
2019-02-27T01:20:57.166Z,0
2019-02-27T01:21:37.565Z,0
2019-02-27T01:22:17.959Z,0
2019-02-27T01:22:58.393Z,0
2019-02-27T01:23:38.736Z,0
2019-02-27T01:24:19.114Z,0
2019-02-27T01:24:59.522Z,0
2019-02-27T01:25:39.930Z,0
2019-02-27T01:26:20.358Z,0
2019-02-27T01:27:04.118Z,0
2019-02-27T01:27:41.150Z,0
2019-02-27T01:28:21.552Z,0
2019-02-27T01:29:01.914Z,0
2019-02-27T01:29:42.322Z,0
2019-02-27T01:30:24.309Z,0
2019-02-27T01:31:03.141Z,0
2019-02-27T01:31:43.583Z,0
2019-02-27T01:32:23.924Z,0
2019-02-27T01:33:04.861Z,0
2019-02-27T01:33:45.709Z,0
2019-02-27T01:34:26.157Z,0
2019-02-27T01:35:06.489Z,0
2019-02-27T01:35:51.156Z,0
2019-02-27T01:36:27.259Z,0
2019-02-27T01:37:07.668Z,0
2019-02-27T01:37:48.047Z,0
2019-02-27T01:38:28.433Z,0
2019-02-27T01:39:11.131Z,0
2019-02-27T01:39:49.235Z,0
2019-02-27T01:40:29.636Z,0
2019-02-27T01:41:10.066Z,0
2019-02-27T01:41:50.396Z,0
2019-02-27T01:42:32.735Z,0
2019-02-27T01:43:11.179Z,0
2019-02-27T01:43:51.575Z,0
2019-02-27T01:44:31.960Z,0
2019-02-27T01:45:12.329Z,0
2019-02-27T01:45:54.268Z,0
2019-02-27T01:46:33.153Z,0
2019-02-27T01:47:13.554Z,0
2019-02-27T01:48:08.866Z,0
2019-02-27T01:48:45.412Z,0
2019-02-27T01:49:25.796Z,0
2019-02-27T01:50:07.923Z,0
2019-02-27T01:50:48.323Z,0
2019-02-27T01:51:28.904Z,0
2019-02-27T01:57:09.115Z,0
2019-02-27T01:57:59.166Z,0
2019-02-27T02:00:14.162Z,0
2019-02-27T02:00:56.223Z,0
2019-02-27T02:01:34.878Z,0
2019-02-27T02:02:15.386Z,0
2019-02-27T02:02:55.695Z,0
2019-02-27T02:03:36.085Z,0
2019-02-27T02:04:19.949Z,0
2019-02-27T02:04:56.978Z,0
2019-02-27T02:05:37.370Z,0
2019-02-27T02:06:17.746Z,0
2019-02-27T02:06:58.167Z,0
2019-02-27T02:07:40.267Z,0
2019-02-27T02:08:18.961Z,0
2019-02-27T02:08:59.366Z,0
2019-02-27T02:09:39.759Z,0
2019-02-27T02:10:20.167Z,0
2019-02-27T02:11:01.373Z,0
2019-02-27T02:11:41.239Z,0
2019-02-27T02:12:21.351Z,0
2019-02-27T02:13:01.799Z,0
2019-02-27T02:13:42.156Z,0
2019-02-27T02:14:22.512Z,0
2019-02-27T02:15:02.919Z,0
2019-02-27T02:15:43.326Z,0
2019-02-27T02:16:23.701Z,0
2019-02-27T02:17:04.988Z,0
2019-02-27T02:17:44.481Z,0
2019-02-27T02:18:24.902Z,0
2019-02-27T02:19:05.403Z,0
2019-02-27T02:19:45.695Z,0
2019-02-27T02:20:27.190Z,0
2019-02-27T02:21:06.477Z,0
2019-02-27T02:21:46.879Z,0
2019-02-27T02:22:27.297Z,0
2019-02-27T02:23:07.766Z,0
2019-02-27T02:23:48.510Z,0
2019-02-27T02:24:28.586Z,0
2019-02-27T02:25:08.942Z,0
2019-02-27T02:25:49.379Z,0
2019-02-27T02:26:32.095Z,0
2019-02-27T02:27:10.193Z,0
2019-02-27T02:27:50.597Z,0
2019-02-27T02:28:31.009Z,0
2019-02-27T02:29:11.410Z,0
2019-02-27T02:29:53.123Z,0
2019-02-27T02:30:32.177Z,0
2019-02-27T02:31:12.613Z,0
2019-02-27T02:31:52.970Z,0
2019-02-27T02:39:57.263Z,0
2019-02-27T02:40:42.441Z,0
2019-02-27T02:41:22.786Z,0
2019-02-27T02:42:03.224Z,0
2019-02-27T02:42:43.888Z,0
2019-02-27T02:43:24.288Z,0
2019-02-27T02:44:04.739Z,0
2019-02-27T02:44:45.184Z,0
2019-02-27T02:45:25.620Z,0
2019-02-27T02:46:08.581Z,0
2019-02-27T02:46:46.517Z,0
2019-02-27T02:47:27.142Z,0
2019-02-27T02:48:07.595Z,0
2019-02-27T02:48:47.857Z,0
2019-02-27T02:49:28.394Z,0
2019-02-27T02:50:08.917Z,0
2019-02-27T02:50:53.888Z,0
2019-02-27T02:51:30.032Z,0
2019-02-27T02:52:10.526Z,0
2019-02-27T02:52:51.081Z,0
2019-02-27T02:53:31.408Z,0
2019-02-27T02:54:11.872Z,0
2019-02-27T02:54:52.928Z,0
2019-02-27T02:55:33.366Z,0
2019-02-27T02:56:14.009Z,0
2019-02-27T02:56:59.983Z,0
2019-02-27T02:57:36.181Z,0
2019-02-27T02:58:15.611Z,0
2019-02-27T02:58:56.085Z,0
2019-02-27T02:59:36.426Z,0
2019-02-27T03:00:16.826Z,0
2019-02-27T03:00:57.282Z,0
2019-02-27T03:01:38.067Z,0
2019-02-27T03:02:23.386Z,0
2019-02-27T03:03:00.760Z,0
2019-02-27T03:03:39.451Z,0
2019-02-27T03:04:20.075Z,0
2019-02-27T03:05:00.559Z,0
2019-02-27T03:05:40.931Z,0
2019-02-27T03:06:21.516Z,0
2019-02-27T03:07:01.861Z,0
2019-02-27T03:07:44.675Z,0
2019-02-27T03:08:23.360Z,0
2019-02-27T03:09:03.592Z,0
2019-02-27T03:09:44.205Z,0
2019-02-27T03:10:24.509Z,0
2019-02-27T03:11:05.549Z,0
2019-02-27T03:11:45.730Z,0
2019-02-27T03:12:29.673Z,0
2019-02-27T03:13:07.376Z,0
2019-02-27T03:13:47.196Z,0
2019-02-27T03:14:27.904Z,0
2019-02-27T03:15:08.096Z,0
2019-02-27T03:15:49.070Z,0
2019-02-27T03:16:29.342Z,0
2019-02-27T03:17:10.721Z,0
2019-02-27T03:17:54.691Z,0
2019-02-27T03:18:32.096Z,0
2019-02-27T03:19:14.986Z,0
2019-02-27T03:19:58.524Z,0
2019-02-27T03:20:39.060Z,0
2019-02-27T03:21:19.542Z,0
2019-02-27T03:22:03.540Z,0
2019-02-27T03:22:41.786Z,0
2019-02-27T03:23:21.476Z,0
2019-02-27T03:24:01.873Z,0
2019-02-27T03:24:42.732Z,0
2019-02-27T03:25:23.276Z,0
2019-02-27T03:26:03.649Z,0
2019-02-27T03:26:44.369Z,0
2019-02-27T03:27:29.391Z,0
2019-02-27T03:28:05.859Z,0
2019-02-27T03:28:45.739Z,0
2019-02-27T03:29:26.406Z,0
2019-02-27T03:30:06.934Z,0
2019-02-27T03:30:47.501Z,0
2019-02-27T03:31:28.144Z,0
2019-02-27T03:32:08.395Z,0
2019-02-27T03:32:48.784Z,0
2019-02-27T03:33:29.242Z,0
2019-02-27T03:34:09.669Z,0
2019-02-27T03:34:51.040Z,0
2019-02-27T03:35:31.003Z,0
2019-02-27T03:36:11.203Z,0
2019-02-27T03:36:51.781Z,0
2019-02-27T03:37:33.378Z,0
2019-02-27T03:38:14.183Z,0
2019-02-27T03:38:55.798Z,0
2019-02-27T03:39:35.878Z,0
2019-02-27T03:40:15.749Z,0
2019-02-27T03:40:56.130Z,0
2019-02-27T03:41:36.653Z,0
2019-02-27T03:42:17.043Z,0
2019-02-27T03:42:58.411Z,0
2019-02-27T03:43:38.834Z,0
2019-02-27T03:44:20.592Z,0
2019-02-27T03:44:59.757Z,0
2019-02-27T03:45:40.369Z,0
2019-02-27T03:46:20.808Z,0
2019-02-27T03:47:01.219Z,0
2019-02-27T03:47:41.664Z,0
2019-02-27T03:48:27.392Z,0
2019-02-27T03:49:04.755Z,0
2019-02-27T03:49:45.407Z,0
2019-02-27T03:50:26.494Z,0
2019-02-27T03:51:06.910Z,0
2019-02-27T03:51:47.239Z,0
2019-02-27T03:52:27.591Z,0
2019-02-27T03:53:10.464Z,0
2019-02-27T03:53:48.478Z,0
2019-02-27T03:54:28.857Z,0
2019-02-27T03:55:09.543Z,0
2019-02-27T03:55:50.033Z,0
2019-02-27T03:56:30.742Z,0
2019-02-27T03:57:11.210Z,0
2019-02-27T03:57:54.824Z,0
2019-02-27T03:58:32.734Z,0
2019-02-27T03:59:14.594Z,0
2019-02-27T03:59:55.207Z,0
2019-02-27T04:00:36.674Z,0
2019-02-27T04:01:16.547Z,0
2019-02-27T04:01:56.955Z,0
2019-02-27T04:02:38.836Z,0
2019-02-27T04:03:18.485Z,0
2019-02-27T04:03:58.446Z,0
2019-02-27T04:04:38.834Z,0
2019-02-27T04:05:19.305Z,0
2019-02-27T04:05:59.682Z,0
2019-02-27T04:06:40.058Z,0
2019-02-27T04:07:20.482Z,0
2019-02-27T04:08:06.844Z,0
2019-02-27T04:08:44.679Z,0
2019-02-27T04:09:22.161Z,0
2019-02-27T04:10:02.574Z,0
2019-02-27T04:10:43.065Z,0
2019-02-27T04:11:23.453Z,0
2019-02-27T04:12:03.852Z,0
2019-02-27T04:12:51.280Z,0
2019-02-27T04:13:27.650Z,0
2019-02-27T04:14:07.085Z,0
2019-02-27T04:14:47.834Z,0
2019-02-27T04:15:28.161Z,0
2019-02-27T04:16:09.447Z,0
2019-02-27T04:16:49.854Z,0
2019-02-27T04:21:12.898Z,0
2019-02-27T04:21:53.405Z,0
2019-02-27T04:22:36.806Z,0
2019-02-27T04:23:14.091Z,0
2019-02-27T04:25:30.975Z,0
2019-02-27T04:26:08.688Z,0
2019-02-27T04:26:49.081Z,0
2019-02-27T04:27:29.482Z,0
2019-02-27T05:09:27.307Z,0
2019-02-27T05:10:07.930Z,0
2019-02-27T05:10:48.228Z,0
2019-02-27T05:11:31.407Z,0
2019-02-27T05:12:11.783Z,0
2019-02-27T05:12:52.154Z,0
2019-02-27T05:13:34.409Z,0
2019-02-27T05:14:12.933Z,0
2019-02-27T05:14:53.301Z,0
2019-02-27T05:15:33.741Z,0
2019-02-27T05:16:14.780Z,0
2019-02-27T05:16:54.539Z,0
2019-02-27T05:17:34.976Z,0
2019-02-27T05:18:15.322Z,0
2019-02-27T05:18:55.718Z,0
2019-02-27T05:19:37.196Z,0
2019-02-27T05:20:16.489Z,0
2019-02-27T05:20:56.901Z,0
2019-02-27T05:21:37.322Z,0
2019-02-27T05:22:17.717Z,0
2019-02-27T05:23:00.324Z,0
2019-02-27T05:23:38.528Z,0
2019-02-27T05:24:18.933Z,0
2019-02-27T05:24:59.323Z,0
2019-02-27T05:25:39.721Z,0
2019-02-27T05:26:20.184Z,0
2019-02-27T05:27:00.693Z,0
2019-02-27T05:27:40.909Z,0
2019-02-27T05:28:21.344Z,0
2019-02-27T05:29:03.695Z,0
2019-02-27T05:29:44.052Z,0
2019-02-27T05:30:24.450Z,0
2019-02-27T05:31:04.819Z,0
2019-02-27T05:31:45.193Z,0
2019-02-27T05:32:28.180Z,0
2019-02-27T05:33:05.986Z,0
2019-02-27T05:33:46.407Z,0
2019-02-27T05:34:26.815Z,0
2019-02-27T05:35:07.213Z,0
2019-02-27T05:35:47.668Z,0
2019-02-27T05:36:28.942Z,0
2019-02-27T05:37:08.458Z,0
2019-02-27T05:37:48.795Z,0
2019-02-27T05:38:29.203Z,0
2019-02-27T05:39:09.629Z,0
2019-02-27T05:39:51.096Z,0
2019-02-27T05:40:30.459Z,0
2019-02-27T05:41:11.870Z,0
2019-02-27T05:41:51.755Z,0
2019-02-27T05:42:32.175Z,0
2019-02-27T05:43:13.837Z,0
2019-02-27T05:43:52.931Z,0
2019-02-27T05:44:33.287Z,0
2019-02-27T05:45:13.751Z,0
2019-02-27T05:45:54.285Z,0
2019-02-27T05:46:35.673Z,0
2019-02-27T05:47:15.134Z,0
2019-02-27T05:47:55.533Z,0
2019-02-27T05:48:36.871Z,0
2019-02-27T05:49:17.267Z,0
2019-02-27T05:49:57.913Z,0
2019-02-27T05:50:38.055Z,0
2019-02-27T05:51:18.396Z,0
2019-02-27T05:51:58.800Z,0
2019-02-27T05:52:39.205Z,0
2019-02-27T05:53:22.073Z,0
2019-02-27T05:54:00.013Z,0
2019-02-27T05:54:40.379Z,0
2019-02-27T05:55:20.829Z,0
2019-02-27T05:56:01.271Z,0
2019-02-27T05:56:41.613Z,0
2019-02-27T05:57:23.287Z,0
2019-02-27T05:58:02.425Z,0
2019-02-27T05:58:42.820Z,0
2019-02-27T05:59:23.258Z,0
2019-02-27T06:00:03.679Z,0
2019-02-27T06:00:45.011Z,0
2019-02-27T06:01:25.464Z,0
2019-02-27T06:02:05.943Z,0
2019-02-27T06:02:46.305Z,0
2019-02-27T06:03:26.770Z,0
2019-02-27T06:04:07.223Z,0
2019-02-27T06:04:47.602Z,0
2019-02-27T06:05:27.927Z,0
2019-02-27T06:08:07.260Z,0
2019-02-27T06:08:47.232Z,0
2019-02-27T06:09:30.713Z,0
2019-02-27T06:10:10.987Z,0
2019-02-27T06:10:55.932Z,0
2019-02-27T06:11:33.160Z,0
2019-02-27T06:12:13.203Z,0
2019-02-27T06:12:53.696Z,0
2019-02-27T06:13:34.148Z,0
2019-02-27T06:14:16.240Z,0
2019-02-27T06:14:56.578Z,0
2019-02-27T06:15:37.115Z,0
2019-02-27T06:16:19.404Z,0
2019-02-27T06:16:59.783Z,0
2019-02-27T06:17:43.271Z,0
2019-02-27T06:18:23.336Z,0
2019-02-27T06:19:01.637Z,0
2019-02-27T06:19:45.312Z,0
2019-02-27T06:32:12.298Z,30
2019-02-27T06:32:50.552Z,45
2019-02-27T06:33:30.926Z,50
2019-02-27T06:34:11.331Z,45
2019-02-27T06:34:51.713Z,55
2019-02-27T06:35:34.155Z,60
2019-02-27T06:36:12.527Z,70
2019-02-27T06:36:53.916Z,75
2019-02-27T06:37:34.276Z,85
2019-02-27T06:38:14.658Z,85
2019-02-27T06:38:55.119Z,90
2019-02-27T06:39:37.238Z,105
2019-02-27T06:40:18.290Z,115
2019-02-27T06:40:59.365Z,130
2019-02-27T06:41:39.898Z,130
2019-02-27T06:42:18.984Z,135
2019-02-27T06:42:59.345Z,140
2019-02-27T06:43:39.797Z,145
2019-02-27T06:44:22.596Z,155
2019-02-27T06:45:03.136Z,160
2019-02-27T06:45:46.344Z,170
2019-02-27T06:46:23.927Z,185
2019-02-27T06:47:06.468Z,190
2019-02-27T06:47:44.855Z,190
2019-02-27T06:48:25.208Z,190
2019-02-27T06:49:05.889Z,200
2019-02-27T06:49:46.312Z,210
2019-02-27T06:50:26.765Z,225
2019-02-27T06:51:07.299Z,235
2019-02-27T06:51:47.842Z,235
2019-02-27T06:52:28.250Z,245
2019-02-27T06:53:08.658Z,250
2019-02-27T06:53:49.087Z,225
2019-02-27T06:54:29.651Z,160
2019-02-27T06:55:12.989Z,95
2019-02-27T06:55:51.483Z,70
2019-02-27T06:56:31.908Z,60
2019-02-27T06:57:12.352Z,60
2019-02-27T06:57:52.747Z,60
2019-02-27T06:58:33.156Z,60
2019-02-27T06:59:13.631Z,60
2019-02-27T06:59:54.065Z,60
2019-02-27T07:00:36.646Z,60
2019-02-27T07:01:14.901Z,60
2019-02-27T07:01:55.385Z,60
2019-02-27T07:02:35.852Z,65
2019-02-27T07:03:16.334Z,65
2019-02-27T07:03:56.911Z,65
2019-02-27T07:04:39.447Z,65
2019-02-27T07:05:20.624Z,65
2019-02-27T07:06:03.290Z,70
2019-02-27T07:06:45.634Z,70
2019-02-27T07:07:26.035Z,70
2019-02-27T07:08:06.573Z,70
2019-02-27T07:08:47.525Z,70
2019-02-27T07:09:28.111Z,75
2019-02-27T07:10:10.259Z,75
2019-02-27T07:10:50.834Z,75
2019-02-27T07:11:31.211Z,75
2019-02-27T07:12:11.657Z,75
2019-02-27T07:12:54.673Z,75
2019-02-27T07:13:32.569Z,75
2019-02-27T07:14:13.029Z,75
2019-02-27T07:14:53.650Z,75
2019-02-27T07:15:34.235Z,75
2019-02-27T07:16:14.912Z,80
2019-02-27T07:16:57.302Z,80
2019-02-27T07:17:36.853Z,80
2019-02-27T07:18:17.619Z,85
2019-02-27T07:18:58.546Z,85
2019-02-27T07:20:40.312Z,95
2019-02-27T07:21:21.064Z,95
2019-02-27T07:22:01.666Z,95
2019-02-27T07:22:45.458Z,90
2019-02-27T07:23:23.810Z,95
2019-02-27T07:24:03.384Z,95
2019-02-27T07:24:44.208Z,95
2019-02-27T07:25:24.711Z,95
2019-02-27T07:26:06.942Z,95
2019-02-27T07:26:47.522Z,95
2019-02-27T07:27:28.280Z,95
2019-02-27T07:28:11.084Z,95
2019-02-27T07:28:54.970Z,95
2019-02-27T07:29:36.392Z,95
2019-02-27T07:30:18.486Z,95
2019-02-27T07:31:02.546Z,100
2019-02-27T07:31:42.992Z,95
2019-02-27T07:32:24.230Z,90
2019-02-27T07:33:06.664Z,90
2019-02-27T07:33:46.824Z,95
2019-02-27T07:34:27.286Z,90
2019-02-27T07:35:09.764Z,90
2019-02-27T07:35:49.953Z,85
2019-02-27T07:36:40.613Z,85
2019-02-27T07:37:23.320Z,80
2019-02-27T07:38:04.488Z,80
2019-02-27T07:38:44.924Z,80
2019-02-27T07:39:26.151Z,75
2019-02-27T07:40:11.391Z,75
2019-02-27T07:40:53.755Z,75
2019-02-27T07:41:35.749Z,75
2019-02-27T07:42:18.070Z,75
2019-02-27T07:42:59.147Z,75
2019-02-27T07:43:41.512Z,75
2019-02-27T07:44:24.107Z,75
2019-02-27T07:45:04.575Z,75
2019-02-27T07:45:46.212Z,75
2019-02-27T07:46:25.955Z,75
2019-02-27T07:47:06.450Z,75
2019-02-27T07:47:47.190Z,70
2019-02-27T07:48:31.560Z,70
2019-02-27T07:49:12.013Z,70
2019-02-27T07:49:52.438Z,70
2019-02-27T07:50:32.865Z,70
2019-02-27T07:51:13.282Z,70
2019-02-27T07:51:56.820Z,70
2019-02-27T07:52:34.209Z,70
2019-02-27T07:53:17.400Z,70
2019-02-27T07:53:55.944Z,65
2019-02-27T07:54:36.375Z,65
2019-02-27T07:55:21.770Z,65
2019-02-27T07:55:57.252Z,60
2019-02-27T07:56:39.396Z,60
2019-02-27T07:57:19.869Z,60
2019-02-27T07:58:00.671Z,60
2019-02-27T07:58:41.054Z,60
2019-02-27T07:59:21.440Z,60
2019-02-27T08:00:01.850Z,60
2019-02-27T08:00:42.869Z,55
2019-02-27T08:01:23.507Z,55
2019-02-27T08:02:03.236Z,55
2019-02-27T08:02:43.642Z,55
2019-02-27T08:03:24.109Z,55
2019-02-27T08:04:05.486Z,55
2019-02-27T08:04:45.891Z,55
2019-02-27T08:05:28.991Z,55
2019-02-27T08:06:06.827Z,55
2019-02-27T08:06:47.276Z,55
2019-02-27T08:07:27.709Z,55
2019-02-27T08:08:12.984Z,55
2019-02-27T08:08:57.754Z,55
2019-02-27T08:11:05.479Z,55
2019-02-27T08:11:47.268Z,55
2019-02-27T08:12:28.706Z,55
2019-02-27T08:13:09.173Z,55
2019-02-27T08:13:51.483Z,55
2019-02-27T08:14:31.955Z,55
2019-02-27T08:15:13.586Z,55
2019-02-27T08:15:52.828Z,55
2019-02-27T08:16:36.678Z,55
2019-02-27T08:17:17.478Z,55
2019-02-27T08:17:57.377Z,55
2019-02-27T08:18:37.502Z,55
2019-02-27T08:19:15.176Z,55
2019-02-27T08:19:55.593Z,55
2019-02-27T08:20:36.061Z,55
2019-02-27T08:21:16.534Z,55
2019-02-27T08:21:56.949Z,55
2019-02-27T08:22:37.470Z,55
2019-02-27T08:23:17.830Z,55
2019-02-27T08:23:59.438Z,55
2019-02-27T08:24:39.847Z,55
2019-02-27T08:25:20.201Z,55
2019-02-27T08:26:04.464Z,55
2019-02-27T08:26:41.018Z,55
2019-02-27T08:27:21.585Z,55
2019-02-27T08:28:02.847Z,55
2019-02-27T08:28:42.462Z,55
2019-02-27T08:29:22.863Z,55
2019-02-27T08:30:03.271Z,55
2019-02-27T08:30:43.709Z,55
2019-02-27T08:31:27.859Z,55
2019-02-27T08:32:05.468Z,55
2019-02-27T08:32:44.963Z,55
2019-02-27T08:33:25.414Z,55
2019-02-27T08:34:05.851Z,55
2019-02-27T08:34:47.035Z,55
2019-02-27T08:35:27.456Z,55
2019-02-27T08:36:07.891Z,55
2019-02-27T08:36:48.332Z,55
2019-02-27T08:37:28.709Z,55
2019-02-27T08:38:09.137Z,55
2019-02-27T08:38:49.539Z,55
2019-02-27T08:39:29.957Z,55
2019-02-27T08:40:10.345Z,55
2019-02-27T08:40:50.738Z,55
2019-02-27T08:41:31.549Z,55
2019-02-27T08:42:11.633Z,55
2019-02-27T08:42:52.057Z,55
2019-02-27T08:43:32.462Z,55
2019-02-27T08:44:13.291Z,55
2019-02-27T08:44:53.374Z,55
2019-02-27T08:45:33.768Z,55
2019-02-27T08:46:14.206Z,55
2019-02-27T08:46:54.637Z,55
2019-02-27T08:47:35.054Z,55
2019-02-27T08:48:17.403Z,55
2019-02-27T08:48:55.941Z,55
2019-02-27T08:49:36.309Z,55
2019-02-27T08:50:16.790Z,55
2019-02-27T08:50:57.195Z,55
2019-02-27T08:51:39.734Z,55
2019-02-27T08:56:18.559Z,55
2019-02-27T08:56:58.968Z,55
2019-02-27T08:57:40.971Z,55
2019-02-27T08:58:21.409Z,55
2019-02-27T08:59:04.865Z,55
2019-02-27T08:59:42.310Z,55
2019-02-27T09:00:23.354Z,55
2019-02-27T09:01:03.200Z,55
2019-02-27T09:01:43.618Z,55
2019-02-27T09:02:24.233Z,55
2019-02-27T09:03:04.453Z,55
2019-02-27T09:03:44.853Z,55
2019-02-27T09:04:25.306Z,55
2019-02-27T09:05:05.634Z,55
2019-02-27T09:05:46.080Z,55
2019-02-27T09:06:27.497Z,55
2019-02-27T09:07:06.950Z,55
2019-02-27T09:07:47.330Z,55
2019-02-27T09:08:31.175Z,55
2019-02-27T09:09:08.253Z,55
2019-02-27T09:09:51.542Z,55
2019-02-27T09:10:30.582Z,55
2019-02-27T09:11:09.688Z,55
2019-02-27T09:11:50.152Z,55
2019-02-27T09:12:30.722Z,55
2019-02-27T09:13:11.170Z,55
2019-02-27T09:13:51.598Z,55
2019-02-27T09:14:32.312Z,55
2019-02-27T09:15:12.839Z,55
2019-02-27T09:15:53.795Z,55
2019-02-27T09:16:33.581Z,55
2019-02-27T09:17:13.970Z,55
2019-02-27T09:17:54.435Z,55
2019-02-27T09:18:36.433Z,55
2019-02-27T09:19:15.266Z,55
2019-02-27T09:19:55.686Z,55
2019-02-27T09:20:36.427Z,55
2019-02-27T09:21:17.257Z,55
2019-02-27T09:21:59.904Z,55
2019-02-27T09:22:38.396Z,55
2019-02-27T09:23:18.607Z,55
2019-02-27T09:24:00.436Z,55
2019-02-27T09:24:43.155Z,55
2019-02-27T09:25:24.472Z,55
2019-02-27T09:26:04.091Z,55
2019-02-27T09:26:45.985Z,55
2019-02-27T09:27:26.510Z,55
2019-02-27T09:28:09.249Z,55
2019-02-27T09:28:48.504Z,55
2019-02-27T09:29:29.018Z,55
2019-02-27T09:30:09.717Z,55
2019-02-27T09:30:50.365Z,55
2019-02-27T09:31:30.910Z,55
2019-02-27T09:32:12.357Z,55
2019-02-27T09:32:52.763Z,55
2019-02-27T09:33:38.636Z,55
2019-02-27T09:34:13.773Z,55
2019-02-27T09:36:52.528Z,55
2019-02-27T09:37:33.112Z,55
2019-02-27T09:38:13.649Z,55
2019-02-27T09:38:57.245Z,55
2019-02-27T09:39:35.629Z,55
2019-02-27T09:40:16.533Z,55
2019-02-27T09:40:57.088Z,55
2019-02-27T09:41:37.659Z,55
2019-02-27T09:42:19.108Z,55
2019-02-27T09:42:58.645Z,55
2019-02-27T09:43:40.080Z,55
2019-02-27T09:44:19.676Z,55
2019-02-27T09:45:00.239Z,55
2019-02-27T09:45:40.823Z,55
2019-02-27T09:46:22.026Z,55
2019-02-27T09:47:02.539Z,55
2019-02-27T09:47:42.575Z,55
2019-02-27T09:48:24.035Z,55
2019-02-27T09:49:07.005Z,55
2019-02-27T09:49:45.614Z,55
2019-02-27T09:50:26.195Z,55
2019-02-27T09:51:09.779Z,55
2019-02-27T09:51:49.987Z,55
2019-02-27T09:52:30.729Z,55
2019-02-27T09:53:11.057Z,55
2019-02-27T09:53:51.647Z,55
2019-02-27T09:54:33.842Z,55
2019-02-27T09:55:12.713Z,55
2019-02-27T09:55:54.258Z,55
2019-02-27T09:56:34.117Z,55
2019-02-27T09:57:15.533Z,55
2019-02-27T09:57:56.676Z,55
2019-02-27T09:58:36.757Z,55
2019-02-27T09:59:19.654Z,55
2019-02-27T09:59:57.636Z,55
2019-02-27T10:00:38.122Z,55
2019-02-27T10:01:19.040Z,55
2019-02-27T10:02:00.442Z,55
2019-02-27T10:02:43.090Z,55
2019-02-27T10:03:21.685Z,55
2019-02-27T10:04:01.863Z,55
2019-02-27T10:04:42.299Z,55
2019-02-27T10:05:23.699Z,55
2019-02-27T10:06:03.804Z,55
2019-02-27T10:06:44.115Z,55
2019-02-27T10:07:24.495Z,55
2019-02-27T10:08:04.887Z,55
2019-02-27T10:08:45.329Z,55
2019-02-27T10:09:25.766Z,55
2019-02-27T10:10:09.963Z,55
2019-02-27T10:10:46.695Z,55
2019-02-27T10:11:28.590Z,55
2019-02-27T10:12:08.948Z,55
2019-02-27T10:12:49.746Z,55
2019-02-27T10:13:30.779Z,55
2019-02-27T10:14:10.698Z,55
2019-02-27T10:14:51.143Z,55
2019-02-27T10:15:31.575Z,55
2019-02-27T10:16:12.035Z,55
2019-02-27T10:16:52.446Z,55
2019-02-27T10:17:32.872Z,55
2019-02-27T10:18:18.032Z,55
2019-02-27T10:18:55.529Z,55
2019-02-27T10:19:34.105Z,55
2019-02-27T10:20:14.577Z,55
2019-02-27T10:20:55.004Z,55
2019-02-27T10:21:35.389Z,55
2019-02-27T10:22:17.617Z,55
2019-02-27T10:22:56.538Z,55
2019-02-27T10:23:38.798Z,55
2019-02-27T10:24:20.194Z,55
2019-02-27T10:25:00.685Z,55
2019-02-27T10:25:43.455Z,55
2019-02-27T10:26:22.627Z,55
2019-02-27T10:27:02.423Z,55
2019-02-27T10:27:43.312Z,55
2019-02-27T10:28:23.963Z,55
2019-02-27T10:29:04.485Z,55
2019-02-27T11:07:19.716Z,50
2019-02-27T11:08:00.518Z,50
2019-02-27T11:08:40.985Z,50
2019-02-27T11:09:23.030Z,50
2019-02-27T11:10:03.454Z,50
2019-02-27T11:10:43.944Z,50
2019-02-27T11:11:24.305Z,50
2019-02-27T11:12:04.746Z,50
2019-02-27T11:12:46.025Z,50
2019-02-27T11:13:26.486Z,50
2019-02-27T11:14:08.664Z,50
2019-02-27T11:14:49.033Z,50
2019-02-27T11:15:29.484Z,50
2019-02-27T11:16:09.940Z,50
2019-02-27T11:16:50.378Z,50
2019-02-27T11:17:30.835Z,50
2019-02-27T11:18:11.355Z,50
2019-02-27T11:18:51.799Z,50
2019-02-27T11:19:32.429Z,50
2019-02-27T11:20:13.991Z,50
2019-02-27T11:20:55.661Z,50
2019-02-27T11:21:34.913Z,50
2019-02-27T11:22:15.576Z,50
2019-02-27T11:22:56.118Z,50
2019-02-27T11:23:40.827Z,50
2019-02-27T11:24:17.415Z,50
2019-02-27T11:24:57.941Z,50
2019-02-27T11:25:38.343Z,50
2019-02-27T11:26:18.930Z,50
2019-02-27T11:27:00.313Z,50
2019-02-27T11:27:40.747Z,50
2019-02-27T11:28:21.123Z,50
2019-02-27T11:29:01.641Z,50
2019-02-27T11:29:42.020Z,50
2019-02-27T11:30:29.215Z,50
2019-02-27T11:31:10.938Z,50
2019-02-27T11:31:50.671Z,50
2019-02-27T11:32:31.068Z,50
2019-02-27T11:33:12.172Z,50
2019-02-27T11:35:55.796Z,50
2019-02-27T11:36:38.836Z,50
2019-02-27T11:37:16.717Z,50
2019-02-27T11:37:57.097Z,50
2019-02-27T11:38:38.327Z,50
2019-02-27T11:39:19.371Z,50
2019-02-27T11:39:59.179Z,50
2019-02-27T11:40:42.551Z,50
2019-02-27T11:41:20.029Z,50
2019-02-27T11:42:01.431Z,50
2019-02-27T11:42:42.785Z,50
2019-02-27T11:43:23.160Z,50
2019-02-27T11:44:03.623Z,50
2019-02-27T11:44:44.119Z,50
2019-02-27T11:45:24.859Z,50
2019-02-27T11:46:05.285Z,50
2019-02-27T11:46:45.724Z,50
2019-02-27T11:47:26.303Z,50
2019-02-27T11:48:06.748Z,50
2019-02-27T11:48:47.199Z,50
2019-02-27T11:49:28.441Z,50
2019-02-27T11:50:09.439Z,50
2019-02-27T11:50:49.762Z,50
2019-02-27T11:51:30.173Z,50
2019-02-27T11:52:10.656Z,50
2019-02-27T11:52:51.058Z,50